sensor_id;sensor_type;location;lat;lon;timestamp;temperature;humidity
14475;DHT22;7323;50.848;4.334;2022-12-13T00:01:15;1.90;1.00
14475;DHT22;7323;50.848;4.334;2022-12-13T00:03:42;1.80;1.00
14475;DHT22;7323;50.848;4.334;2022-12-13T00:06:10;1.90;1.00
14475;DHT22;7323;50.848;4.334;2022-12-13T00:08:37;2.00;1.00
14475;DHT22;7323;50.848;4.334;2022-12-13T00:11:05;2.10;1.00
14475;DHT22;7323;50.848;4.334;2022-12-13T00:13:34;2.10;1.00
14475;DHT22;7323;50.848;4.334;2022-12-13T00:16:02;2.00;1.00
14475;DHT22;7323;50.848;4.334;2022-12-13T00:18:35;1.70;1.00
14475;DHT22;7323;50.848;4.334;2022-12-13T00:21:04;1.60;10.20
14475;DHT22;7323;50.848;4.334;2022-12-13T00:23:36;1.60;11.70
14475;DHT22;7323;50.848;4.334;2022-12-13T00:26:04;1.50;12.50
14475;DHT22;7323;50.848;4.334;2022-12-13T00:28:33;1.40;16.50
14475;DHT22;7323;50.848;4.334;2022-12-13T00:31:00;1.50;15.90
14475;DHT22;7323;50.848;4.334;2022-12-13T00:33:27;1.60;16.40
14475;DHT22;7323;50.848;4.334;2022-12-13T00:35:52;1.80;13.60
14475;DHT22;7323;50.848;4.334;2022-12-13T00:38:18;2.10;10.30
14475;DHT22;7323;50.848;4.334;2022-12-13T00:40:44;1.80;10.00
14475;DHT22;7323;50.848;4.334;2022-12-13T00:43:10;1.80;10.30
14475;DHT22;7323;50.848;4.334;2022-12-13T00:45:35;1.70;9.60
14475;DHT22;7323;50.848;4.334;2022-12-13T00:48:03;1.70;10.70
14475;DHT22;7323;50.848;4.334;2022-12-13T00:50:29;1.50;10.10
14475;DHT22;7323;50.848;4.334;2022-12-13T00:52:55;1.40;11.60
14475;DHT22;7323;50.848;4.334;2022-12-13T00:55:21;1.40;11.30
14475;DHT22;7323;50.848;4.334;2022-12-13T00:57:46;1.40;11.20
14475;DHT22;7323;50.848;4.334;2022-12-13T01:00:12;1.50;10.40
14475;DHT22;7323;50.848;4.334;2022-12-13T01:02:38;1.50;9.00
14475;DHT22;7323;50.848;4.334;2022-12-13T01:05:04;1.40;4.50
14475;DHT22;7323;50.848;4.334;2022-12-13T01:07:33;1.50;2.30
14475;DHT22;7323;50.848;4.334;2022-12-13T01:09:59;1.30;1.50
14475;DHT22;7323;50.848;4.334;2022-12-13T01:12:25;1.20;3.20
14475;DHT22;7323;50.848;4.334;2022-12-13T01:14:51;1.10;4.60
14475;DHT22;7323;50.848;4.334;2022-12-13T01:17:16;1.10;7.10
14475;DHT22;7323;50.848;4.334;2022-12-13T01:19:42;1.10;6.80
14475;DHT22;7323;50.848;4.334;2022-12-13T01:22:08;1.10;6.40
14475;DHT22;7323;50.848;4.334;2022-12-13T01:24:42;1.10;6.10
14475;DHT22;7323;50.848;4.334;2022-12-13T01:27:10;1.00;7.70
14475;DHT22;7323;50.848;4.334;2022-12-13T01:29:36;1.10;8.80
14475;DHT22;7323;50.848;4.334;2022-12-13T01:32:02;1.10;7.40
14475;DHT22;7323;50.848;4.334;2022-12-13T01:34:28;1.00;6.80
14475;DHT22;7323;50.848;4.334;2022-12-13T01:36:55;1.00;5.60
14475;DHT22;7323;50.848;4.334;2022-12-13T01:39:21;1.00;7.70
14475;DHT22;7323;50.848;4.334;2022-12-13T01:41:53;1.00;7.70
14475;DHT22;7323;50.848;4.334;2022-12-13T01:50:08;0.80;4.20
14475;DHT22;7323;50.848;4.334;2022-12-13T01:52:37;0.80;3.90
14475;DHT22;7323;50.848;4.334;2022-12-13T01:55:06;0.90;3.50
14475;DHT22;7323;50.848;4.334;2022-12-13T01:57:33;0.80;1.00
14475;DHT22;7323;50.848;4.334;2022-12-13T02:00:02;0.90;1.30
14475;DHT22;7323;50.848;4.334;2022-12-13T02:02:28;0.80;1.00
14475;DHT22;7323;50.848;4.334;2022-12-13T02:05:32;0.80;1.00
14475;DHT22;7323;50.848;4.334;2022-12-13T02:07:57;0.80;1.00
14475;DHT22;7323;50.848;4.334;2022-12-13T02:10:25;0.80;1.00
14475;DHT22;7323;50.848;4.334;2022-12-13T02:12:51;0.80;1.00
14475;DHT22;7323;50.848;4.334;2022-12-13T02:15:18;0.70;1.00
14475;DHT22;7323;50.848;4.334;2022-12-13T02:17:51;0.70;1.00
14475;DHT22;7323;50.848;4.334;2022-12-13T02:23:26;0.60;1.00
14475;DHT22;7323;50.848;4.334;2022-12-13T02:28:59;0.50;1.00
14475;DHT22;7323;50.848;4.334;2022-12-13T02:31:48;0.50;1.00
14475;DHT22;7323;50.848;4.334;2022-12-13T02:36:43;0.50;1.00
14475;DHT22;7323;50.848;4.334;2022-12-13T02:39:22;0.40;1.00
14475;DHT22;7323;50.848;4.334;2022-12-13T02:41:52;0.40;1.00
14475;DHT22;7323;50.848;4.334;2022-12-13T02:44:42;0.40;1.00
14475;DHT22;7323;50.848;4.334;2022-12-13T02:47:14;0.40;1.00
14475;DHT22;7323;50.848;4.334;2022-12-13T02:49:47;0.40;1.00
14475;DHT22;7323;50.848;4.334;2022-12-13T02:52:16;0.40;1.00
14475;DHT22;7323;50.848;4.334;2022-12-13T02:54:42;0.30;1.00
14475;DHT22;7323;50.848;4.334;2022-12-13T02:59:52;0.40;1.00
14475;DHT22;7323;50.848;4.334;2022-12-13T03:02:36;0.40;1.00
14475;DHT22;7323;50.848;4.334;2022-12-13T03:05:23;0.40;1.00
14475;DHT22;7323;50.848;4.334;2022-12-13T03:11:08;0.40;1.00
14475;DHT22;7323;50.848;4.334;2022-12-13T03:13:56;0.30;1.00
14475;DHT22;7323;50.848;4.334;2022-12-13T03:16:37;0.30;1.00
14475;DHT22;7323;50.848;4.334;2022-12-13T03:19:07;0.20;1.00
14475;DHT22;7323;50.848;4.334;2022-12-13T03:21:39;0.10;1.00
14475;DHT22;7323;50.848;4.334;2022-12-13T03:24:06;0.20;1.00
14475;DHT22;7323;50.848;4.334;2022-12-13T03:26:35;0.10;1.00
14475;DHT22;7323;50.848;4.334;2022-12-13T03:29:04;0.10;1.00
14475;DHT22;7323;50.848;4.334;2022-12-13T03:31:30;0.10;1.00
14475;DHT22;7323;50.848;4.334;2022-12-13T03:33:56;0.10;1.00
14475;DHT22;7323;50.848;4.334;2022-12-13T03:36:22;0.10;1.00
14475;DHT22;7323;50.848;4.334;2022-12-13T03:38:49;0.00;1.00
14475;DHT22;7323;50.848;4.334;2022-12-13T03:41:25;0.10;1.00
14475;DHT22;7323;50.848;4.334;2022-12-13T03:44:06;0.20;1.00
14475;DHT22;7323;50.848;4.334;2022-12-13T03:46:32;0.10;1.00
14475;DHT22;7323;50.848;4.334;2022-12-13T03:48:58;0.10;1.00
14475;DHT22;7323;50.848;4.334;2022-12-13T03:51:23;0.20;1.00
14475;DHT22;7323;50.848;4.334;2022-12-13T03:53:49;0.20;1.00
14475;DHT22;7323;50.848;4.334;2022-12-13T03:56:15;0.20;1.00
14475;DHT22;7323;50.848;4.334;2022-12-13T03:58:40;0.20;1.00
14475;DHT22;7323;50.848;4.334;2022-12-13T04:01:12;0.20;1.00
14475;DHT22;7323;50.848;4.334;2022-12-13T04:03:40;0.10;1.00
14475;DHT22;7323;50.848;4.334;2022-12-13T04:06:07;0.10;1.00
14475;DHT22;7323;50.848;4.334;2022-12-13T04:08:34;0.10;1.00
14475;DHT22;7323;50.848;4.334;2022-12-13T04:10:59;0.10;1.00
14475;DHT22;7323;50.848;4.334;2022-12-13T04:13:45;0.00;1.00
14475;DHT22;7323;50.848;4.334;2022-12-13T04:16:11;0.00;1.00
14475;DHT22;7323;50.848;4.334;2022-12-13T04:18:36;0.00;1.00
14475;DHT22;7323;50.848;4.334;2022-12-13T04:21:03;0.00;1.00
14475;DHT22;7323;50.848;4.334;2022-12-13T04:23:28;0.00;1.00
14475;DHT22;7323;50.848;4.334;2022-12-13T04:25:54;0.00;1.00
14475;DHT22;7323;50.848;4.334;2022-12-13T04:28:20;0.00;1.00
14475;DHT22;7323;50.848;4.334;2022-12-13T04:30:45;0.00;1.00
14475;DHT22;7323;50.848;4.334;2022-12-13T04:33:11;0.00;1.00
14475;DHT22;7323;50.848;4.334;2022-12-13T04:35:37;0.00;1.00
14475;DHT22;7323;50.848;4.334;2022-12-13T04:38:02;-0.10;1.00
14475;DHT22;7323;50.848;4.334;2022-12-13T04:40:28;-0.10;1.00
14475;DHT22;7323;50.848;4.334;2022-12-13T04:42:53;-0.20;3.40
14475;DHT22;7323;50.848;4.334;2022-12-13T04:45:19;-0.20;4.70
14475;DHT22;7323;50.848;4.334;2022-12-13T04:47:46;-0.20;5.50
14475;DHT22;7323;50.848;4.334;2022-12-13T04:50:12;-0.20;6.20
14475;DHT22;7323;50.848;4.334;2022-12-13T04:52:38;-0.20;4.80
14475;DHT22;7323;50.848;4.334;2022-12-13T04:55:04;-0.20;5.60
14475;DHT22;7323;50.848;4.334;2022-12-13T04:57:30;-0.20;5.70
14475;DHT22;7323;50.848;4.334;2022-12-13T04:59:56;-0.20;4.90
14475;DHT22;7323;50.848;4.334;2022-12-13T05:02:22;-0.20;3.90
14475;DHT22;7323;50.848;4.334;2022-12-13T05:04:48;-0.20;1.00
14475;DHT22;7323;50.848;4.334;2022-12-13T05:07:13;-0.10;1.60
14475;DHT22;7323;50.848;4.334;2022-12-13T05:09:39;-0.10;1.00
14475;DHT22;7323;50.848;4.334;2022-12-13T05:12:05;-0.10;1.00
14475;DHT22;7323;50.848;4.334;2022-12-13T05:14:31;-0.10;1.00
14475;DHT22;7323;50.848;4.334;2022-12-13T05:16:57;-0.10;1.00
14475;DHT22;7323;50.848;4.334;2022-12-13T05:19:23;-0.20;1.00
14475;DHT22;7323;50.848;4.334;2022-12-13T05:21:49;-0.20;1.00
14475;DHT22;7323;50.848;4.334;2022-12-13T05:24:15;-0.20;1.00
14475;DHT22;7323;50.848;4.334;2022-12-13T05:26:41;-0.20;2.60
14475;DHT22;7323;50.848;4.334;2022-12-13T05:29:07;-0.20;4.00
14475;DHT22;7323;50.848;4.334;2022-12-13T05:31:32;-0.20;2.30
14475;DHT22;7323;50.848;4.334;2022-12-13T05:33:58;-0.10;1.00
14475;DHT22;7323;50.848;4.334;2022-12-13T05:36:24;-0.10;1.00
14475;DHT22;7323;50.848;4.334;2022-12-13T05:38:51;-0.10;1.00
14475;DHT22;7323;50.848;4.334;2022-12-13T05:41:19;-0.10;1.00
14475;DHT22;7323;50.848;4.334;2022-12-13T05:43:46;-0.10;1.00
14475;DHT22;7323;50.848;4.334;2022-12-13T05:46:12;-0.10;1.00
14475;DHT22;7323;50.848;4.334;2022-12-13T05:48:38;-0.20;1.00
14475;DHT22;7323;50.848;4.334;2022-12-13T05:51:04;-0.30;1.00
14475;DHT22;7323;50.848;4.334;2022-12-13T05:53:30;-0.30;1.00
14475;DHT22;7323;50.848;4.334;2022-12-13T05:56:05;0.00;1.00
14475;DHT22;7323;50.848;4.334;2022-12-13T05:58:31;-0.10;1.00
14475;DHT22;7323;50.848;4.334;2022-12-13T06:01:04;-0.20;1.00
14475;DHT22;7323;50.848;4.334;2022-12-13T06:03:31;-0.20;1.00
14475;DHT22;7323;50.848;4.334;2022-12-13T06:06:00;-0.20;1.00
14475;DHT22;7323;50.848;4.334;2022-12-13T06:08:26;-0.20;1.00
14475;DHT22;7323;50.848;4.334;2022-12-13T06:10:55;-0.20;1.00
14475;DHT22;7323;50.848;4.334;2022-12-13T06:13:22;-0.30;1.00
14475;DHT22;7323;50.848;4.334;2022-12-13T06:15:48;-0.30;1.00
14475;DHT22;7323;50.848;4.334;2022-12-13T06:18:15;-0.20;1.00
14475;DHT22;7323;50.848;4.334;2022-12-13T06:20:41;-0.20;1.00
14475;DHT22;7323;50.848;4.334;2022-12-13T06:23:07;-0.20;1.00
14475;DHT22;7323;50.848;4.334;2022-12-13T06:25:33;-0.30;1.00
14475;DHT22;7323;50.848;4.334;2022-12-13T06:28:00;-0.40;1.00
14475;DHT22;7323;50.848;4.334;2022-12-13T06:30:29;-0.40;1.00
14475;DHT22;7323;50.848;4.334;2022-12-13T06:32:56;-0.40;1.00
14475;DHT22;7323;50.848;4.334;2022-12-13T06:35:23;-0.50;3.20
14475;DHT22;7323;50.848;4.334;2022-12-13T06:37:51;-0.50;1.60
14475;DHT22;7323;50.848;4.334;2022-12-13T06:40:17;-0.50;2.30
14475;DHT22;7323;50.848;4.334;2022-12-13T06:42:43;-0.60;5.30
14475;DHT22;7323;50.848;4.334;2022-12-13T06:45:10;-0.60;7.60
14475;DHT22;7323;50.848;4.334;2022-12-13T06:47:36;-0.60;7.40
14475;DHT22;7323;50.848;4.334;2022-12-13T06:50:02;-0.60;7.30
14475;DHT22;7323;50.848;4.334;2022-12-13T06:52:29;-0.60;6.80
14475;DHT22;7323;50.848;4.334;2022-12-13T06:54:54;-0.60;9.20
14475;DHT22;7323;50.848;4.334;2022-12-13T06:57:20;-0.60;8.50
14475;DHT22;7323;50.848;4.334;2022-12-13T06:59:46;-0.70;6.30
14475;DHT22;7323;50.848;4.334;2022-12-13T07:02:12;-0.70;6.40
14475;DHT22;7323;50.848;4.334;2022-12-13T07:04:37;-0.80;6.50
14475;DHT22;7323;50.848;4.334;2022-12-13T07:07:03;-0.80;6.30
14475;DHT22;7323;50.848;4.334;2022-12-13T07:09:30;-0.80;7.20
14475;DHT22;7323;50.848;4.334;2022-12-13T07:11:56;-0.70;6.60
14475;DHT22;7323;50.848;4.334;2022-12-13T07:14:21;-0.70;6.60
14475;DHT22;7323;50.848;4.334;2022-12-13T07:16:47;-0.60;5.60
14475;DHT22;7323;50.848;4.334;2022-12-13T07:19:13;-0.70;4.00
14475;DHT22;7323;50.848;4.334;2022-12-13T07:21:39;-0.60;5.40
14475;DHT22;7323;50.848;4.334;2022-12-13T07:24:05;-0.70;4.70
14475;DHT22;7323;50.848;4.334;2022-12-13T07:26:31;-0.70;5.40
14475;DHT22;7323;50.848;4.334;2022-12-13T07:28:57;-0.60;6.10
14475;DHT22;7323;50.848;4.334;2022-12-13T07:31:23;-0.70;2.40
14475;DHT22;7323;50.848;4.334;2022-12-13T07:33:49;-0.70;1.20
14475;DHT22;7323;50.848;4.334;2022-12-13T07:36:20;-0.60;1.00
14475;DHT22;7323;50.848;4.334;2022-12-13T07:38:57;-0.50;2.80
14475;DHT22;7323;50.848;4.334;2022-12-13T07:41:24;-0.70;4.70
14475;DHT22;7323;50.848;4.334;2022-12-13T07:43:54;-0.80;6.70
14475;DHT22;7323;50.848;4.334;2022-12-13T07:46:20;-0.80;10.00
14475;DHT22;7323;50.848;4.334;2022-12-13T07:48:46;-0.80;8.80
14475;DHT22;7323;50.848;4.334;2022-12-13T07:51:12;-0.80;9.50
14475;DHT22;7323;50.848;4.334;2022-12-13T07:53:39;-0.80;10.20
14475;DHT22;7323;50.848;4.334;2022-12-13T07:56:10;-0.80;9.70
14475;DHT22;7323;50.848;4.334;2022-12-13T07:58:37;-0.80;7.20
14475;DHT22;7323;50.848;4.334;2022-12-13T08:01:05;-0.70;6.80
14475;DHT22;7323;50.848;4.334;2022-12-13T08:03:32;-0.80;11.10
14475;DHT22;7323;50.848;4.334;2022-12-13T08:06:04;-0.80;14.20
14475;DHT22;7323;50.848;4.334;2022-12-13T08:08:30;-0.80;17.70
14475;DHT22;7323;50.848;4.334;2022-12-13T08:13:28;-0.70;20.10
14475;DHT22;7323;50.848;4.334;2022-12-13T08:16:02;-0.70;17.90
14475;DHT22;7323;50.848;4.334;2022-12-13T08:18:28;-0.80;18.30
14475;DHT22;7323;50.848;4.334;2022-12-13T08:20:59;-0.70;17.70
14475;DHT22;7323;50.848;4.334;2022-12-13T08:23:26;-0.60;12.10
14475;DHT22;7323;50.848;4.334;2022-12-13T08:25:53;-0.50;9.10
14475;DHT22;7323;50.848;4.334;2022-12-13T08:28:19;-0.40;8.60
14475;DHT22;7323;50.848;4.334;2022-12-13T08:30:46;-0.40;3.40
14475;DHT22;7323;50.848;4.334;2022-12-13T08:33:12;-0.30;1.00
14475;DHT22;7323;50.848;4.334;2022-12-13T08:35:37;-0.40;1.00
14475;DHT22;7323;50.848;4.334;2022-12-13T08:38:03;-0.30;1.00
14475;DHT22;7323;50.848;4.334;2022-12-13T08:40:29;-0.30;1.00
14475;DHT22;7323;50.848;4.334;2022-12-13T08:42:54;-0.40;1.00
14475;DHT22;7323;50.848;4.334;2022-12-13T08:45:20;-0.30;1.00
14475;DHT22;7323;50.848;4.334;2022-12-13T08:47:48;-0.20;1.00
14475;DHT22;7323;50.848;4.334;2022-12-13T08:50:15;-0.30;1.00
14475;DHT22;7323;50.848;4.334;2022-12-13T08:52:41;-0.40;1.00
14475;DHT22;7323;50.848;4.334;2022-12-13T08:55:13;-0.30;1.00
14475;DHT22;7323;50.848;4.334;2022-12-13T08:57:40;-0.30;1.20
14475;DHT22;7323;50.848;4.334;2022-12-13T09:00:09;-0.20;1.00
14475;DHT22;7323;50.848;4.334;2022-12-13T09:02:36;-0.20;1.00
14475;DHT22;7323;50.848;4.334;2022-12-13T09:05:02;-0.10;1.00
14475;DHT22;7323;50.848;4.334;2022-12-13T09:07:28;0.00;1.00
14475;DHT22;7323;50.848;4.334;2022-12-13T09:09:54;0.10;1.00
14475;DHT22;7323;50.848;4.334;2022-12-13T09:12:19;0.20;1.00
14475;DHT22;7323;50.848;4.334;2022-12-13T09:14:46;0.10;1.00
14475;DHT22;7323;50.848;4.334;2022-12-13T09:17:15;0.10;1.00
14475;DHT22;7323;50.848;4.334;2022-12-13T09:19:40;0.10;1.00
14475;DHT22;7323;50.848;4.334;2022-12-13T09:22:06;0.30;1.00
14475;DHT22;7323;50.848;4.334;2022-12-13T09:24:37;0.40;1.00
14475;DHT22;7323;50.848;4.334;2022-12-13T09:27:09;0.40;1.00
14475;DHT22;7323;50.848;4.334;2022-12-13T09:29:39;0.40;1.00
14475;DHT22;7323;50.848;4.334;2022-12-13T09:32:06;0.30;1.00
14475;DHT22;7323;50.848;4.334;2022-12-13T09:34:32;0.30;1.00
14475;DHT22;7323;50.848;4.334;2022-12-13T09:36:57;0.40;1.00
14475;DHT22;7323;50.848;4.334;2022-12-13T09:39:23;0.40;1.00
14475;DHT22;7323;50.848;4.334;2022-12-13T09:41:53;0.50;1.00
14475;DHT22;7323;50.848;4.334;2022-12-13T09:44:23;0.50;1.00
14475;DHT22;7323;50.848;4.334;2022-12-13T09:46:51;0.50;1.00
14475;DHT22;7323;50.848;4.334;2022-12-13T09:51:54;0.60;1.00
14475;DHT22;7323;50.848;4.334;2022-12-13T09:54:22;0.70;1.00
14475;DHT22;7323;50.848;4.334;2022-12-13T09:56:49;0.70;1.00
14475;DHT22;7323;50.848;4.334;2022-12-13T09:59:17;0.70;1.00
14475;DHT22;7323;50.848;4.334;2022-12-13T10:01:44;0.70;1.00
14475;DHT22;7323;50.848;4.334;2022-12-13T10:04:12;0.70;1.00
14475;DHT22;7323;50.848;4.334;2022-12-13T10:06:39;0.80;1.00
14475;DHT22;7323;50.848;4.334;2022-12-13T10:09:08;0.80;1.00
14475;DHT22;7323;50.848;4.334;2022-12-13T10:11:35;0.80;1.00
14475;DHT22;7323;50.848;4.334;2022-12-13T10:18:55;1.00;1.00
14475;DHT22;7323;50.848;4.334;2022-12-13T10:21:29;1.00;1.00
14475;DHT22;7323;50.848;4.334;2022-12-13T10:24:15;1.10;1.00
14475;DHT22;7323;50.848;4.334;2022-12-13T10:26:43;1.30;1.00
14475;DHT22;7323;50.848;4.334;2022-12-13T10:29:09;1.20;1.00
14475;DHT22;7323;50.848;4.334;2022-12-13T10:31:53;1.20;1.00
14475;DHT22;7323;50.848;4.334;2022-12-13T10:34:26;1.30;1.00
14475;DHT22;7323;50.848;4.334;2022-12-13T10:36:52;1.40;1.00
14475;DHT22;7323;50.848;4.334;2022-12-13T10:39:40;1.50;1.00
14475;DHT22;7323;50.848;4.334;2022-12-13T10:42:18;1.50;1.00
14475;DHT22;7323;50.848;4.334;2022-12-13T10:44:44;1.40;1.00
14475;DHT22;7323;50.848;4.334;2022-12-13T10:47:16;1.50;1.00
14475;DHT22;7323;50.848;4.334;2022-12-13T10:49:55;1.50;1.00
14475;DHT22;7323;50.848;4.334;2022-12-13T10:52:27;1.60;1.00
14475;DHT22;7323;50.848;4.334;2022-12-13T10:54:55;1.60;1.00
14475;DHT22;7323;50.848;4.334;2022-12-13T10:57:21;1.60;1.00
14475;DHT22;7323;50.848;4.334;2022-12-13T10:59:48;1.70;1.00
14475;DHT22;7323;50.848;4.334;2022-12-13T11:02:37;1.60;1.00
14475;DHT22;7323;50.848;4.334;2022-12-13T11:05:30;1.60;1.00
14475;DHT22;7323;50.848;4.334;2022-12-13T11:08:13;1.70;1.00
14475;DHT22;7323;50.848;4.334;2022-12-13T11:10:39;1.80;1.00
14475;DHT22;7323;50.848;4.334;2022-12-13T11:13:06;1.80;1.00
14475;DHT22;7323;50.848;4.334;2022-12-13T11:15:34;1.80;1.00
14475;DHT22;7323;50.848;4.334;2022-12-13T11:18:05;1.90;1.00
14475;DHT22;7323;50.848;4.334;2022-12-13T11:20:59;1.80;1.00
14475;DHT22;7323;50.848;4.334;2022-12-13T11:23:32;1.90;1.00
14475;DHT22;7323;50.848;4.334;2022-12-13T11:26:01;1.90;1.00
14475;DHT22;7323;50.848;4.334;2022-12-13T11:34:14;2.00;1.00
14475;DHT22;7323;50.848;4.334;2022-12-13T11:39:49;2.20;1.00
14475;DHT22;7323;50.848;4.334;2022-12-13T11:42:34;2.30;1.00
14475;DHT22;7323;50.848;4.334;2022-12-13T11:45:06;2.20;1.00
14475;DHT22;7323;50.848;4.334;2022-12-13T11:48:06;2.10;1.00
14475;DHT22;7323;50.848;4.334;2022-12-13T11:50:43;2.00;1.00
14475;DHT22;7323;50.848;4.334;2022-12-13T11:53:31;2.00;1.00
14475;DHT22;7323;50.848;4.334;2022-12-13T11:56:14;2.00;1.00
14475;DHT22;7323;50.848;4.334;2022-12-13T11:58:49;2.10;1.00
14475;DHT22;7323;50.848;4.334;2022-12-13T12:04:43;2.00;1.00
14475;DHT22;7323;50.848;4.334;2022-12-13T12:07:11;2.00;1.00
14475;DHT22;7323;50.848;4.334;2022-12-13T12:09:46;2.00;1.00
14475;DHT22;7323;50.848;4.334;2022-12-13T12:12:22;2.00;1.00
14475;DHT22;7323;50.848;4.334;2022-12-13T12:15:20;2.00;1.00
14475;DHT22;7323;50.848;4.334;2022-12-13T12:17:49;2.10;1.00
14475;DHT22;7323;50.848;4.334;2022-12-13T12:20:20;2.30;1.00
14475;DHT22;7323;50.848;4.334;2022-12-13T12:22:53;2.40;1.00
14475;DHT22;7323;50.848;4.334;2022-12-13T12:25:26;2.30;1.00
14475;DHT22;7323;50.848;4.334;2022-12-13T12:28:16;2.30;1.00
14475;DHT22;7323;50.848;4.334;2022-12-13T12:36:34;2.30;1.00
14475;DHT22;7323;50.848;4.334;2022-12-13T12:39:29;2.20;1.00
14475;DHT22;7323;50.848;4.334;2022-12-13T12:57:23;2.30;1.00
14475;DHT22;7323;50.848;4.334;2022-12-13T13:05:32;2.20;1.00
14475;DHT22;7323;50.848;4.334;2022-12-13T13:08:27;2.30;1.00
14475;DHT22;7323;50.848;4.334;2022-12-13T13:10:56;2.30;1.00
14475;DHT22;7323;50.848;4.334;2022-12-13T13:15:56;2.30;1.00
14475;DHT22;7323;50.848;4.334;2022-12-13T13:18:49;2.30;1.00
14475;DHT22;7323;50.848;4.334;2022-12-13T13:21:34;2.30;1.00
14475;DHT22;7323;50.848;4.334;2022-12-13T13:26:41;2.10;1.00
14475;DHT22;7323;50.848;4.334;2022-12-13T13:29:20;2.10;1.00
14475;DHT22;7323;50.848;4.334;2022-12-13T13:34:33;2.10;1.00
14475;DHT22;7323;50.848;4.334;2022-12-13T13:37:00;2.00;1.00
14475;DHT22;7323;50.848;4.334;2022-12-13T13:52:31;1.70;1.00
14475;DHT22;7323;50.848;4.334;2022-12-13T13:55:25;1.70;1.00
14475;DHT22;7323;50.848;4.334;2022-12-13T13:58:02;1.80;1.00
14475;DHT22;7323;50.848;4.334;2022-12-13T14:01:05;1.80;1.00
14475;DHT22;7323;50.848;4.334;2022-12-13T14:09:49;1.50;1.00
14475;DHT22;7323;50.848;4.334;2022-12-13T14:23:49;1.80;1.00
14475;DHT22;7323;50.848;4.334;2022-12-13T14:29:32;1.80;1.00
14475;DHT22;7323;50.848;4.334;2022-12-13T14:31:59;1.70;1.00
14475;DHT22;7323;50.848;4.334;2022-12-13T14:34:27;1.70;1.00
14475;DHT22;7323;50.848;4.334;2022-12-13T14:36:57;1.70;1.00
14475;DHT22;7323;50.848;4.334;2022-12-13T14:39:23;1.60;1.00
14475;DHT22;7323;50.848;4.334;2022-12-13T14:41:53;1.60;1.00
14475;DHT22;7323;50.848;4.334;2022-12-13T14:44:24;1.60;1.00
14475;DHT22;7323;50.848;4.334;2022-12-13T14:46:53;1.50;1.00
14475;DHT22;7323;50.848;4.334;2022-12-13T14:49:20;1.60;1.00
14475;DHT22;7323;50.848;4.334;2022-12-13T14:51:56;1.50;1.00
14475;DHT22;7323;50.848;4.334;2022-12-13T14:54:30;1.50;1.00
14475;DHT22;7323;50.848;4.334;2022-12-13T14:57:00;1.40;1.00
14475;DHT22;7323;50.848;4.334;2022-12-13T14:59:27;1.50;1.00
14475;DHT22;7323;50.848;4.334;2022-12-13T15:02:02;1.50;1.00
14475;DHT22;7323;50.848;4.334;2022-12-13T15:04:33;1.50;1.00
14475;DHT22;7323;50.848;4.334;2022-12-13T15:07:07;1.50;1.00
14475;DHT22;7323;50.848;4.334;2022-12-13T15:09:38;1.60;1.00
14475;DHT22;7323;50.848;4.334;2022-12-13T15:12:12;1.70;1.00
14475;DHT22;7323;50.848;4.334;2022-12-13T15:14:42;1.60;1.00
14475;DHT22;7323;50.848;4.334;2022-12-13T15:17:30;1.60;1.00
14475;DHT22;7323;50.848;4.334;2022-12-13T15:20:21;1.60;1.00
14475;DHT22;7323;50.848;4.334;2022-12-13T15:23:09;1.60;1.00
14475;DHT22;7323;50.848;4.334;2022-12-13T15:25:36;1.60;1.00
14475;DHT22;7323;50.848;4.334;2022-12-13T15:28:04;1.50;1.00
14475;DHT22;7323;50.848;4.334;2022-12-13T15:30:32;1.40;1.00
14475;DHT22;7323;50.848;4.334;2022-12-13T15:33:15;1.40;1.00
14475;DHT22;7323;50.848;4.334;2022-12-13T15:35:42;1.40;1.00
14475;DHT22;7323;50.848;4.334;2022-12-13T15:38:18;1.30;1.00
14475;DHT22;7323;50.848;4.334;2022-12-13T15:40:48;1.20;1.00
14475;DHT22;7323;50.848;4.334;2022-12-13T15:43:16;1.30;1.00
14475;DHT22;7323;50.848;4.334;2022-12-13T15:45:45;1.30;1.00
14475;DHT22;7323;50.848;4.334;2022-12-13T15:48:50;1.30;1.00
14475;DHT22;7323;50.848;4.334;2022-12-13T15:51:18;1.30;1.00
14475;DHT22;7323;50.848;4.334;2022-12-13T15:56:29;1.40;1.00
14475;DHT22;7323;50.848;4.334;2022-12-13T15:58:56;1.40;1.00
14475;DHT22;7323;50.848;4.334;2022-12-13T16:01:35;1.30;1.00
14475;DHT22;7323;50.848;4.334;2022-12-13T16:04:03;1.30;1.00
14475;DHT22;7323;50.848;4.334;2022-12-13T16:06:31;1.20;1.00
14475;DHT22;7323;50.848;4.334;2022-12-13T16:09:00;1.20;1.40
14475;DHT22;7323;50.848;4.334;2022-12-13T16:11:29;1.20;4.00
14475;DHT22;7323;50.848;4.334;2022-12-13T16:16:43;1.00;10.90
14475;DHT22;7323;50.848;4.334;2022-12-13T16:19:29;1.00;15.70
14475;DHT22;7323;50.848;4.334;2022-12-13T16:21:56;1.00;18.10
14475;DHT22;7323;50.848;4.334;2022-12-13T16:24:22;1.00;21.30
14475;DHT22;7323;50.848;4.334;2022-12-13T16:26:47;1.00;21.00
14475;DHT22;7323;50.848;4.334;2022-12-13T16:29:16;1.00;21.40
14475;DHT22;7323;50.848;4.334;2022-12-13T16:31:45;0.90;21.30
14475;DHT22;7323;50.848;4.334;2022-12-13T16:34:10;0.90;21.00
14475;DHT22;7323;50.848;4.334;2022-12-13T16:36:36;0.90;22.20
14475;DHT22;7323;50.848;4.334;2022-12-13T16:39:04;0.90;23.30
14475;DHT22;7323;50.848;4.334;2022-12-13T16:41:36;0.90;24.60
14475;DHT22;7323;50.848;4.334;2022-12-13T16:44:34;1.00;24.40
14475;DHT22;7323;50.848;4.334;2022-12-13T16:47:11;1.00;23.50
14475;DHT22;7323;50.848;4.334;2022-12-13T16:49:39;1.00;24.40
14475;DHT22;7323;50.848;4.334;2022-12-13T16:52:04;1.10;26.40
14475;DHT22;7323;50.848;4.334;2022-12-13T16:54:32;0.90;26.50
14475;DHT22;7323;50.848;4.334;2022-12-13T16:56:58;1.00;27.80
14475;DHT22;7323;50.848;4.334;2022-12-13T16:59:25;0.90;27.10
14475;DHT22;7323;50.848;4.334;2022-12-13T17:01:53;1.00;26.40
14475;DHT22;7323;50.848;4.334;2022-12-13T17:04:21;1.00;25.80
14475;DHT22;7323;50.848;4.334;2022-12-13T17:06:48;1.00;27.80
14475;DHT22;7323;50.848;4.334;2022-12-13T17:09:14;0.90;27.30
14475;DHT22;7323;50.848;4.334;2022-12-13T17:11:40;0.80;29.20
14475;DHT22;7323;50.848;4.334;2022-12-13T17:14:06;0.80;31.20
14475;DHT22;7323;50.848;4.334;2022-12-13T17:16:32;0.80;29.50
14475;DHT22;7323;50.848;4.334;2022-12-13T17:18:58;0.80;30.70
14475;DHT22;7323;50.848;4.334;2022-12-13T17:21:24;0.80;31.70
14475;DHT22;7323;50.848;4.334;2022-12-13T17:23:57;0.80;33.60
14475;DHT22;7323;50.848;4.334;2022-12-13T17:26:24;0.80;33.60
14475;DHT22;7323;50.848;4.334;2022-12-13T17:28:52;0.80;33.80
14475;DHT22;7323;50.848;4.334;2022-12-13T17:31:19;0.80;34.60
14475;DHT22;7323;50.848;4.334;2022-12-13T17:33:45;0.70;35.00
14475;DHT22;7323;50.848;4.334;2022-12-13T17:36:11;0.70;35.90
14475;DHT22;7323;50.848;4.334;2022-12-13T17:38:45;0.60;38.10
14475;DHT22;7323;50.848;4.334;2022-12-13T17:41:15;0.60;39.60
14475;DHT22;7323;50.848;4.334;2022-12-13T17:43:41;0.60;40.00
14475;DHT22;7323;50.848;4.334;2022-12-13T17:46:13;0.60;40.30
14475;DHT22;7323;50.848;4.334;2022-12-13T17:48:39;0.60;41.30
14475;DHT22;7323;50.848;4.334;2022-12-13T17:51:05;0.60;42.10
14475;DHT22;7323;50.848;4.334;2022-12-13T17:53:32;0.60;43.00
14475;DHT22;7323;50.848;4.334;2022-12-13T17:56:00;0.60;43.60
14475;DHT22;7323;50.848;4.334;2022-12-13T17:58:27;0.60;42.40
14475;DHT22;7323;50.848;4.334;2022-12-13T18:00:54;0.60;42.60
14475;DHT22;7323;50.848;4.334;2022-12-13T18:03:20;0.60;43.20
14475;DHT22;7323;50.848;4.334;2022-12-13T18:05:58;0.50;44.90
14475;DHT22;7323;50.848;4.334;2022-12-13T18:08:25;0.50;44.90
14475;DHT22;7323;50.848;4.334;2022-12-13T18:10:55;0.50;45.70
14475;DHT22;7323;50.848;4.334;2022-12-13T18:13:25;0.50;47.60
14475;DHT22;7323;50.848;4.334;2022-12-13T18:15:51;0.50;48.80
14475;DHT22;7323;50.848;4.334;2022-12-13T18:18:18;0.30;48.70
14475;DHT22;7323;50.848;4.334;2022-12-13T18:20:45;0.30;49.90
14475;DHT22;7323;50.848;4.334;2022-12-13T18:23:11;0.30;50.80